Time;durP1;ratioP1;P1;durP2;ratioP2;P2;SDS_P1;SDS_P2;PMS_P1;PMS_P2;Temp;Humidity;BMP_temperature;BMP_pressure;BME280_temperature;BME280_humidity;BME280_pressure;Samples;Min_cycle;Max_cycle;Signal;HPM_P1;HPM_P2
2022/01/27 00:01:39;;;;;;;52.92;30.02;;;;;;;4.27;88.43;102268.00;2080199;28;37734;-77
2022/01/27 00:02:56;;;;;;;50.60;30.17;;;;;;;4.26;88.87;102258.28;2079850;28;34396;-75
2022/01/27 00:06:19;;;;;;;51.83;29.52;;;;;;;4.26;88.06;102239.72;2079647;28;46301;-76
2022/01/27 00:07:21;;;;;;;54.42;30.58;;;;;;;4.26;88.73;102239.72;2079621;28;45380;-76
2022/01/27 00:08:37;;;;;;;55.70;29.88;;;;;;;4.25;88.29;102241.47;2079841;28;42988;-75
2022/01/27 00:09:50;;;;;;;55.80;31.08;;;;;;;4.25;88.04;102236.16;2080385;28;20059;-76
2022/01/27 00:11:01;;;;;;;56.35;30.25;;;;;;;4.25;88.44;102228.22;2079837;28;46076;-78
2022/01/27 00:12:06;;;;;;;52.13;29.40;;;;;;;4.26;88.14;102223.81;2079766;28;46060;-75
2022/01/27 00:13:13;;;;;;;52.55;30.50;;;;;;;4.25;88.09;102228.22;2079327;28;43389;-75
2022/01/27 00:14:17;;;;;;;50.72;29.85;;;;;;;4.27;88.06;102228.25;2079369;28;43299;-75
2022/01/27 00:15:27;;;;;;;49.35;28.60;;;;;;;4.26;88.34;102226.47;2070890;28;44434;-76
2022/01/27 00:16:34;;;;;;;53.45;30.17;;;;;;;4.25;88.40;102219.38;2072448;28;44949;-78
2022/01/27 00:17:44;;;;;;;56.00;30.25;;;;;;;4.24;88.38;102217.59;2079418;28;46188;-75
2022/01/27 00:18:50;;;;;;;55.90;30.98;;;;;;;4.25;88.30;102225.56;2071012;28;42247;-74
2022/01/27 00:19:52;;;;;;;56.38;30.00;;;;;;;4.25;88.59;102222.03;2073020;28;45305;-75
2022/01/27 00:20:53;;;;;;;55.13;29.83;;;;;;;4.23;88.00;102213.13;2080123;28;36831;-75
2022/01/27 00:21:57;;;;;;;56.95;31.23;;;;;;;4.23;88.43;102206.06;2079252;28;42760;-75
2022/01/27 00:23:01;;;;;;;51.55;29.60;;;;;;;4.23;87.89;102206.06;2079624;28;46388;-76
2022/01/27 00:24:04;;;;;;;48.25;29.15;;;;;;;4.23;87.69;102206.06;2080152;28;43556;-77
2022/01/27 00:25:07;;;;;;;51.38;29.70;;;;;;;4.23;87.91;102213.13;2079269;28;45593;-75
2022/01/27 00:26:11;;;;;;;55.35;30.88;;;;;;;4.21;88.03;102197.19;2079441;28;42225;-76
2022/01/27 00:27:18;;;;;;;55.30;30.52;;;;;;;4.22;88.06;102183.09;2079878;28;43037;-75
2022/01/27 00:28:21;;;;;;;52.72;30.05;;;;;;;4.21;88.14;102183.94;2080627;28;20128;-78
2022/01/27 00:29:22;;;;;;;58.78;31.88;;;;;;;4.20;87.95;102174.22;2079538;28;45898;-77
2022/01/27 00:30:24;;;;;;;56.15;31.90;;;;;;;4.20;87.88;102175.09;2070623;28;44278;-77
2022/01/27 00:31:26;;;;;;;53.20;30.08;;;;;;;4.20;88.22;102169.81;2071104;28;45192;-75
2022/01/27 00:32:28;;;;;;;55.40;29.65;;;;;;;4.19;88.35;102162.69;2079564;28;44713;-75
2022/01/27 00:33:29;;;;;;;54.20;29.50;;;;;;;4.20;88.39;102164.50;2079547;28;43114;-76
2022/01/27 00:34:31;;;;;;;56.50;31.80;;;;;;;4.19;88.13;102175.06;2071009;28;41103;-77
2022/01/27 00:35:33;;;;;;;55.17;29.75;;;;;;;4.18;88.28;102182.13;2071178;28;45128;-77
2022/01/27 00:36:35;;;;;;;56.38;30.23;;;;;;;4.19;88.51;102186.56;2079283;28;44150;-75
2022/01/27 00:37:37;;;;;;;53.33;29.65;;;;;;;4.20;88.15;102188.34;2080091;28;38597;-75
2022/01/27 00:38:39;;;;;;;53.97;29.60;;;;;;;4.21;88.27;102189.25;2079500;28;44075;-75
2022/01/27 00:39:40;;;;;;;50.60;29.35;;;;;;;4.21;87.36;102187.47;2079634;28;45871;-78
2022/01/27 00:40:43;;;;;;;50.97;29.90;;;;;;;4.20;88.02;102177.75;2079789;28;38797;-75
2022/01/27 00:41:45;;;;;;;52.83;28.73;;;;;;;4.22;87.50;102177.78;2079331;28;46395;-76
2022/01/27 00:42:49;;;;;;;50.78;28.83;;;;;;;4.20;88.17;102175.09;2079462;28;44462;-77
2022/01/27 00:43:51;;;;;;;53.08;29.73;;;;;;;4.23;87.86;102173.38;2079239;28;42915;-76
2022/01/27 00:44:54;;;;;;;49.78;28.77;;;;;;;4.23;87.42;102168.97;2070786;28;45606;-75
2022/01/27 00:45:56;;;;;;;54.88;29.55;;;;;;;4.21;87.30;102168.03;2071149;28;45493;-75
2022/01/27 00:46:58;;;;;;;56.13;29.95;;;;;;;4.20;87.49;102156.53;2070782;28;43813;-78
2022/01/27 00:48:03;;;;;;;51.55;29.98;;;;;;;4.21;87.71;102168.91;2071321;28;44127;-75
2022/01/27 00:49:05;;;;;;;54.15;29.80;;;;;;;4.21;87.77;102166.25;2070848;28;44276;-75
2022/01/27 00:50:07;;;;;;;56.65;29.42;;;;;;;4.23;87.32;102165.41;2071154;28;43789;-75
2022/01/27 00:51:11;;;;;;;57.92;29.17;;;;;;;4.23;88.04;102179.56;2079391;28;42419;-77
2022/01/27 00:52:20;;;;;;;58.78;31.27;;;;;;;4.21;87.57;102174.22;2079731;28;43052;-75
2022/01/27 00:53:42;;;;;;;56.28;29.05;;;;;;;4.21;87.27;102171.56;2079642;28;45692;-75
2022/01/27 00:54:45;;;;;;;61.97;29.83;;;;;;;4.22;87.97;102169.84;2079370;28;44105;-75
2022/01/27 00:55:47;;;;;;;53.70;30.75;;;;;;;4.21;87.81;102166.25;2079626;28;46027;-75
2022/01/27 00:56:55;;;;;;;51.85;28.65;;;;;;;4.21;87.51;102166.25;2079542;28;44644;-76
2022/01/27 00:58:18;;;;;;;54.40;29.75;;;;;;;4.22;87.38;102169.84;2079377;28;43353;-75
2022/01/27 00:59:37;;;;;;;54.70;28.55;;;;;;;4.20;88.07;102145.94;2079447;28;37861;-75
2022/01/27 01:00:51;;;;;;;55.78;29.98;;;;;;;4.18;87.58;102139.72;2080255;28;44748;-75
2022/01/27 01:03:09;;;;;;;55.33;29.17;;;;;;;4.18;87.81;102128.19;2073989;28;42138;-76
2022/01/27 01:04:12;;;;;;;50.47;28.90;;;;;;;4.17;88.43;102137.03;2079110;28;45690;-75
2022/01/27 01:05:44;;;;;;;55.05;29.33;;;;;;;4.17;88.07;102127.31;2079577;28;45737;-76
2022/01/27 01:06:48;;;;;;;55.95;29.98;;;;;;;4.15;87.83;102131.69;2079244;28;45377;-76
2022/01/27 01:07:54;;;;;;;55.50;28.65;;;;;;;4.16;88.43;102127.25;2079506;28;44944;-75
2022/01/27 01:10:52;;;;;;;56.30;31.25;;;;;;;4.16;88.23;102127.25;2079481;28;46406;-75
2022/01/27 01:15:29;;;;;;;53.92;28.92;;;;;;;4.15;88.23;102129.03;2079546;28;45937;-76
2022/01/27 01:17:43;;;;;;;55.03;29.98;;;;;;;4.16;87.82;102136.13;2079192;28;46444;-76
2022/01/27 01:18:55;;;;;;;53.40;29.30;;;;;;;4.14;87.99;102134.28;2070288;28;43157;-76
2022/01/27 01:20:23;;;;;;;56.67;30.30;;;;;;;4.15;87.92;102122.84;2066447;28;20042;-76
2022/01/27 01:21:44;;;;;;;59.50;30.23;;;;;;;4.15;87.93;102129.03;2076167;28;44553;-76
2022/01/27 01:32:43;;;;;;;55.10;29.45;;;;;;;4.13;87.81;102076.88;2070590;28;44502;-76
2022/01/27 01:33:46;;;;;;;55.40;28.45;;;;;;;4.13;87.63;102067.16;2075396;28;44156;-76
2022/01/27 01:34:51;;;;;;;58.70;30.30;;;;;;;4.14;87.77;102086.59;2070562;28;44748;-76
2022/01/27 01:36:04;;;;;;;55.28;29.60;;;;;;;4.13;87.46;102088.34;2071362;28;44086;-76
2022/01/27 01:37:07;;;;;;;53.83;29.45;;;;;;;4.14;87.32;102087.47;2079000;28;44942;-76
2022/01/27 01:38:09;;;;;;;63.25;31.13;;;;;;;4.14;87.22;102082.16;2078938;28;42844;-76
2022/01/27 01:39:12;;;;;;;57.78;30.83;;;;;;;4.13;87.58;102082.16;2070354;28;41941;-75
2022/01/27 01:40:17;;;;;;;55.97;30.40;;;;;;;4.13;87.46;102085.69;2071239;28;46346;-76
2022/01/27 01:41:18;;;;;;;59.10;30.75;;;;;;;4.14;87.71;102075.97;2079830;28;43449;-75
2022/01/27 01:42:20;;;;;;;54.47;29.92;;;;;;;4.15;87.27;102080.44;2080486;28;45099;-76
2022/01/27 01:43:22;;;;;;;60.30;31.33;;;;;;;4.15;87.19;102052.16;2080343;28;44687;-76
2022/01/27 01:44:27;;;;;;;54.95;29.08;;;;;;;4.16;86.80;102061.94;2081630;28;20107;-76
2022/01/27 01:45:35;;;;;;;53.47;29.48;;;;;;;4.14;87.38;102063.63;2080654;28;45468;-75
2022/01/27 01:46:37;;;;;;;54.47;31.13;;;;;;;4.17;87.54;102071.66;2071742;28;44380;-76
2022/01/27 01:47:40;;;;;;;56.67;31.02;;;;;;;4.17;87.22;102069.00;2056810;28;44351;-75
2022/01/27 01:48:41;;;;;;;54.53;30.50;;;;;;;4.17;87.36;102074.28;2056676;28;44983;-76
2022/01/27 01:49:46;;;;;;;49.58;28.95;;;;;;;4.18;87.36;102076.09;2072465;28;21010;-76
2022/01/27 01:50:47;;;;;;;55.67;29.40;;;;;;;4.17;87.26;102074.28;2072350;28;43849;-75
2022/01/27 01:51:49;;;;;;;55.38;28.70;;;;;;;4.18;86.58;102077.84;2072598;28;43157;-75
2022/01/27 01:52:52;;;;;;;57.53;30.05;;;;;;;4.18;87.07;102084.06;2072780;28;36581;-75
2022/01/27 01:53:55;;;;;;;54.78;29.38;;;;;;;4.19;87.05;102077.88;2072485;28;45941;-77
2022/01/27 01:54:57;;;;;;;55.55;31.15;;;;;;;4.18;86.91;102068.16;2072216;28;43763;-76
2022/01/27 01:56:01;;;;;;;53.00;30.05;;;;;;;4.18;86.91;102069.88;2072361;28;46239;-75
2022/01/27 01:57:05;;;;;;;53.72;30.42;;;;;;;4.18;86.89;102065.50;2072751;28;43378;-75
2022/01/27 01:58:09;;;;;;;55.22;30.05;;;;;;;4.17;87.45;102061.03;2071747;28;43264;-76
2022/01/27 01:59:12;;;;;;;55.13;29.67;;;;;;;4.18;86.78;102060.19;2072141;28;44643;-76
2022/01/27 02:00:16;;;;;;;55.17;29.85;;;;;;;4.18;87.33;102062.84;2072838;28;44790;-75
2022/01/27 02:01:19;;;;;;;58.17;30.33;;;;;;;4.16;87.09;102064.56;2072485;28;42923;-76
2022/01/27 02:02:23;;;;;;;53.65;29.65;;;;;;;4.18;87.36;102052.25;2071713;28;45818;-77
2022/01/27 02:03:24;;;;;;;55.80;29.45;;;;;;;4.18;87.13;102052.25;2064286;28;45169;-76
2022/01/27 02:04:26;;;;;;;53.47;29.88;;;;;;;4.17;87.08;102050.44;2063880;28;44544;-77
2022/01/27 02:05:33;;;;;;;55.85;31.10;;;;;;;4.19;86.83;102045.19;2064086;28;42959;-77
2022/01/27 02:06:45;;;;;;;57.95;29.60;;;;;;;4.19;86.93;102031.91;2064422;28;45179;-77
2022/01/27 02:08:32;;;;;;;54.58;30.02;;;;;;;4.18;86.78;102041.63;2067234;28;20081;-77
2022/01/27 02:18:03;;;;;;;54.42;27.45;;;;;;;4.15;87.10;102027.44;2072188;28;45016;-77
2022/01/27 02:19:04;;;;;;;56.10;28.38;;;;;;;4.16;87.11;102032.78;2072078;28;44961;-77
2022/01/27 02:20:08;;;;;;;52.60;29.20;;;;;;;4.16;86.49;102032.78;2072126;28;43370;-77
2022/01/27 02:21:12;;;;;;;48.47;28.15;;;;;;;4.16;86.54;102035.41;2072177;28;44304;-77
2022/01/27 02:22:15;;;;;;;58.22;29.55;;;;;;;4.19;86.54;102018.66;2072167;28;45484;-76
2022/01/27 02:23:17;;;;;;;55.13;29.20;;;;;;;4.19;86.30;102019.56;2072251;28;44012;-77
2022/01/27 02:24:23;;;;;;;58.10;29.70;;;;;;;4.23;86.88;102032.88;2072191;28;43017;-75
2022/01/27 02:25:25;;;;;;;56.72;29.77;;;;;;;4.21;86.50;102022.25;2071843;28;45488;-77
2022/01/27 02:26:26;;;;;;;57.28;29.90;;;;;;;4.19;86.00;102030.16;2071429;28;45155;-77
2022/01/27 02:27:29;;;;;;;56.67;30.52;;;;;;;4.20;86.39;102023.13;2072376;28;42992;-77
2022/01/27 02:28:30;;;;;;;55.40;29.77;;;;;;;4.20;86.73;102021.34;2071214;28;45676;-77
2022/01/27 02:29:32;;;;;;;55.92;29.58;;;;;;;4.21;86.26;102027.53;2071507;28;45827;-77
2022/01/27 02:30:34;;;;;;;53.08;28.92;;;;;;;4.18;86.42;102025.75;2072313;28;44178;-77
2022/01/27 02:31:36;;;;;;;55.35;29.77;;;;;;;4.19;86.69;102019.56;2071693;28;47733;-77
2022/01/27 02:32:38;;;;;;;52.13;29.65;;;;;;;4.19;86.10;102014.25;2072422;28;43294;-78
2022/01/27 02:33:39;;;;;;;51.33;29.05;;;;;;;4.19;86.36;102008.94;2071966;28;42593;-77
2022/01/27 02:34:42;;;;;;;51.88;29.05;;;;;;;4.21;86.45;102009.00;2072211;28;44477;-77
2022/01/27 02:35:44;;;;;;;50.08;29.33;;;;;;;4.20;86.38;102018.72;2072109;28;43921;-77
2022/01/27 02:36:48;;;;;;;53.05;29.90;;;;;;;4.21;86.15;102017.81;2072037;28;46259;-77
2022/01/27 02:37:55;;;;;;;52.53;28.52;;;;;;;4.24;86.31;102032.03;2072156;28;44577;-77
2022/01/27 02:38:57;;;;;;;52.67;28.40;;;;;;;4.21;86.11;102033.72;2072186;28;45633;-77
2022/01/27 02:39:59;;;;;;;52.30;29.65;;;;;;;4.22;86.69;102042.59;2072108;28;45506;-77
2022/01/27 02:41:07;;;;;;;56.38;29.73;;;;;;;4.23;86.55;102032.88;2072063;28;45348;-77
2022/01/27 02:42:29;;;;;;;59.35;29.95;;;;;;;4.21;86.14;102022.25;2072515;28;34130;-77
2022/01/27 02:43:30;;;;;;;46.97;26.85;;;;;;;4.23;85.94;102020.50;2071765;28;44277;-77
2022/01/27 02:44:47;;;;;;;49.25;27.55;;;;;;;4.23;85.97;102019.63;2069808;28;43817;-77
2022/01/27 02:46:08;;;;;;;46.95;27.73;;;;;;;4.22;86.78;102008.13;2071456;28;44553;-77
2022/01/27 02:47:11;;;;;;;51.15;28.08;;;;;;;4.24;86.37;102013.47;2072083;28;44044;-77
2022/01/27 02:48:13;;;;;;;51.38;27.70;;;;;;;4.24;86.55;102003.75;2063440;28;46151;-77
2022/01/27 02:49:15;;;;;;;48.13;27.85;;;;;;;4.24;86.29;102005.53;2063481;28;44609;-76
2022/01/27 02:50:18;;;;;;;55.47;29.48;;;;;;;4.24;86.24;102003.75;2071605;28;42774;-77
2022/01/27 02:51:20;;;;;;;49.78;28.17;;;;;;;4.24;86.19;101982.56;2071760;28;46491;-77
2022/01/27 02:52:24;;;;;;;46.85;27.58;;;;;;;4.25;86.10;101980.78;2071418;28;43165;-77
2022/01/27 02:53:28;;;;;;;53.17;28.33;;;;;;;4.24;85.46;101969.31;2071875;28;44308;-77
2022/01/27 02:54:32;;;;;;;49.75;28.05;;;;;;;4.26;85.94;101966.69;2071297;28;43417;-77
2022/01/27 02:55:53;;;;;;;49.25;27.48;;;;;;;4.25;85.70;101968.41;2071962;28;41098;-77
2022/01/27 02:56:55;;;;;;;49.38;26.75;;;;;;;4.25;86.67;101971.06;2071758;28;44935;-77
2022/01/27 02:57:58;;;;;;;44.42;26.40;;;;;;;4.24;85.96;101979.91;2071664;28;44879;-77
2022/01/27 02:59:01;;;;;;;47.63;27.80;;;;;;;4.24;86.32;101973.72;2072648;28;20105;-77
2022/01/27 03:00:05;;;;;;;47.45;27.02;;;;;;;4.26;86.22;101983.47;2072118;28;44794;-77
2022/01/27 03:01:07;;;;;;;48.33;27.80;;;;;;;4.27;86.61;101984.34;2071950;28;38034;-77
2022/01/27 03:02:09;;;;;;;54.80;27.92;;;;;;;4.27;85.72;101979.97;2071291;28;44805;-77
2022/01/27 03:03:10;;;;;;;51.28;27.77;;;;;;;4.26;85.79;101980.81;2071376;28;42424;-77
2022/01/27 03:04:13;;;;;;;50.38;27.52;;;;;;;4.27;85.62;101982.63;2071489;28;45339;-77
2022/01/27 03:05:15;;;;;;;46.45;26.80;;;;;;;4.28;85.80;101976.44;2071409;28;45800;-74
2022/01/27 03:06:16;;;;;;;46.33;27.75;;;;;;;4.27;85.73;101982.63;2071932;28;45009;-77
2022/01/27 03:07:18;;;;;;;46.10;26.75;;;;;;;4.27;86.53;101990.56;2071608;28;41892;-77
2022/01/27 03:08:20;;;;;;;48.33;28.42;;;;;;;4.29;85.35;101987.94;2071649;28;42989;-77
2022/01/27 03:09:22;;;;;;;52.00;29.13;;;;;;;4.28;85.82;101984.38;2071043;28;44366;-77
2022/01/27 03:10:33;;;;;;;50.45;26.52;;;;;;;4.30;86.12;101987.06;2063588;28;44307;-77
2022/01/27 03:11:51;;;;;;;49.50;27.13;;;;;;;4.31;85.36;101976.50;2071846;28;44085;-77
2022/01/27 03:12:58;;;;;;;47.92;26.80;;;;;;;4.30;85.25;101982.66;2071180;28;45179;-77
2022/01/27 03:14:00;;;;;;;49.70;27.13;;;;;;;4.31;86.10;101983.56;2071519;28;43288;-77
2022/01/27 03:15:03;;;;;;;49.72;26.60;;;;;;;4.32;85.55;101966.78;2071864;28;43858;-77
2022/01/27 03:16:07;;;;;;;44.05;26.15;;;;;;;4.33;85.42;101969.47;2072158;28;46544;-77
2022/01/27 03:17:11;;;;;;;49.05;27.25;;;;;;;4.33;85.68;101979.19;2071996;28;44361;-77
2022/01/27 03:18:13;;;;;;;52.70;26.30;;;;;;;4.34;85.42;101967.69;2063159;28;39687;-77
2022/01/27 03:19:15;;;;;;;45.55;26.33;;;;;;;4.32;85.76;101967.66;2063507;28;44873;-77
2022/01/27 03:20:17;;;;;;;45.08;26.48;;;;;;;4.33;85.45;101960.63;2071895;28;45153;-77
2022/01/27 03:21:19;;;;;;;50.35;27.42;;;;;;;4.32;85.67;101953.53;2071813;28;46267;-77
2022/01/27 03:22:20;;;;;;;44.83;27.75;;;;;;;4.31;85.48;101963.25;2071347;28;42418;-77
2022/01/27 03:23:22;;;;;;;46.22;26.33;;;;;;;4.33;86.03;101952.69;2071131;28;41137;-77
2022/01/27 03:24:25;;;;;;;47.17;28.27;;;;;;;4.33;85.72;101956.22;2071815;28;45927;-77
2022/01/27 03:25:26;;;;;;;48.38;27.95;;;;;;;4.32;86.14;101966.78;2071834;28;45108;-77
2022/01/27 03:26:29;;;;;;;46.80;25.73;;;;;;;4.33;85.72;101958.88;2071942;28;43579;-77
2022/01/27 03:27:32;;;;;;;46.88;25.10;;;;;;;4.34;86.18;101946.50;2071830;28;44562;-77
2022/01/27 03:28:34;;;;;;;45.30;26.35;;;;;;;4.33;85.38;101942.06;2071246;28;43188;-77
2022/01/27 03:29:36;;;;;;;47.20;26.02;;;;;;;4.33;85.93;101942.06;2071457;28;43293;-77
2022/01/27 03:30:37;;;;;;;48.28;28.05;;;;;;;4.33;85.93;101936.78;2072154;28;42912;-77
2022/01/27 03:31:39;;;;;;;44.03;25.60;;;;;;;4.32;85.94;101927.91;2071726;28;45349;-77
2022/01/27 03:32:41;;;;;;;49.97;26.33;;;;;;;4.34;85.97;101942.13;2071953;28;43110;-77
2022/01/27 03:33:45;;;;;;;42.53;25.65;;;;;;;4.32;85.76;101927.03;2071999;28;43987;-77
2022/01/27 03:34:47;;;;;;;51.78;27.00;;;;;;;4.34;85.95;101933.25;2071404;28;42205;-77
2022/01/27 03:35:49;;;;;;;45.80;27.15;;;;;;;4.31;85.63;101934.09;2071086;28;44725;-77
2022/01/27 03:36:51;;;;;;;43.95;26.20;;;;;;;4.32;86.22;101941.16;2071798;28;45513;-77
2022/01/27 03:37:53;;;;;;;45.67;26.38;;;;;;;4.31;85.61;101933.22;2071541;28;40845;-77
2022/01/27 03:38:54;;;;;;;44.40;26.80;;;;;;;4.31;85.96;101934.09;2070534;28;45244;-77
2022/01/27 03:39:56;;;;;;;41.88;26.42;;;;;;;4.33;85.28;101923.53;2071672;28;44223;-77
2022/01/27 03:40:58;;;;;;;50.33;26.55;;;;;;;4.32;86.03;101933.22;2072077;28;44726;-77
2022/01/27 03:42:00;;;;;;;45.67;27.40;;;;;;;4.33;85.93;101931.47;2071481;28;42903;-76
2022/01/27 03:43:05;;;;;;;50.50;26.55;;;;;;;4.34;85.11;101942.13;2071306;28;38363;-77
2022/01/27 03:44:07;;;;;;;45.67;26.45;;;;;;;4.34;85.40;101942.13;2071558;28;45361;-77
2022/01/27 03:45:10;;;;;;;46.47;28.40;;;;;;;4.34;85.53;101949.16;2071871;28;45295;-78
2022/01/27 03:46:12;;;;;;;44.45;25.98;;;;;;;4.34;85.26;101946.50;2071630;28;41230;-77
2022/01/27 03:47:14;;;;;;;44.78;26.65;;;;;;;4.33;85.69;101931.47;2071859;28;46053;-77
2022/01/27 03:48:15;;;;;;;41.40;26.42;;;;;;;4.36;85.52;101939.47;2071586;28;45823;-77
2022/01/27 03:49:17;;;;;;;47.90;27.40;;;;;;;4.35;85.01;101929.75;2072095;28;45109;-77
2022/01/27 03:50:19;;;;;;;43.60;26.85;;;;;;;4.33;85.61;101934.13;2071768;28;20339;-77
2022/01/27 03:51:21;;;;;;;43.53;26.55;;;;;;;4.33;85.01;101926.16;2071044;28;43151;-77
2022/01/27 03:52:22;;;;;;;47.38;27.23;;;;;;;4.34;85.71;101927.94;2079732;28;45196;-77
2022/01/27 03:53:24;;;;;;;49.38;28.20;;;;;;;4.34;85.38;101912.94;2079651;28;44288;-77
2022/01/27 03:54:26;;;;;;;43.30;26.52;;;;;;;4.34;85.21;101923.56;2079595;28;39482;-77
2022/01/27 03:55:29;;;;;;;45.83;27.05;;;;;;;4.34;85.61;101917.34;2079642;28;46492;-77
2022/01/27 03:56:30;;;;;;;46.47;27.20;;;;;;;4.34;85.71;101912.03;2079752;28;43160;-77
2022/01/27 03:57:32;;;;;;;46.28;27.90;;;;;;;4.32;86.45;101911.13;2080069;28;45438;-75
2022/01/27 03:58:34;;;;;;;53.15;28.88;;;;;;;4.30;86.21;101899.59;2079507;28;44900;-75
2022/01/27 03:59:36;;;;;;;45.58;28.75;;;;;;;4.30;86.54;101910.19;2080122;28;37474;-75
2022/01/27 04:00:38;;;;;;;48.95;28.50;;;;;;;4.27;87.46;101907.47;2079860;28;44394;-77
2022/01/27 04:01:42;;;;;;;50.20;28.08;;;;;;;4.26;88.42;101905.72;2079797;28;43924;-75
2022/01/27 04:04:14;;;;;;;54.58;30.70;;;;;;;4.18;88.65;101914.41;2076664;28;46807;-77
2022/01/27 04:05:18;;;;;;;50.28;28.67;;;;;;;4.15;89.19;101903.75;2080647;28;44527;-77
2022/01/27 04:06:22;;;;;;;57.10;31.17;;;;;;;4.14;88.53;101912.53;2079856;28;45001;-77
2022/01/27 04:07:24;;;;;;;56.00;29.60;;;;;;;4.13;88.58;101907.25;2079879;28;46244;-77
2022/01/27 04:08:25;;;;;;;52.45;30.25;;;;;;;4.10;88.52;101905.41;2070907;28;42869;-76
2022/01/27 04:09:29;;;;;;;53.50;30.70;;;;;;;4.09;88.98;101906.28;2070592;28;46186;-77
2022/01/27 04:10:32;;;;;;;49.80;30.05;;;;;;;4.10;89.24;101905.41;2080127;28;32116;-77
2022/01/27 04:11:35;;;;;;;53.33;31.50;;;;;;;4.10;88.86;101901.88;2080146;28;43356;-77
2022/01/27 04:12:39;;;;;;;52.50;30.80;;;;;;;4.07;88.77;101900.03;2070774;28;43728;-77
2022/01/27 04:13:41;;;;;;;53.92;29.77;;;;;;;4.06;88.84;101908.88;2071288;28;45551;-77
2022/01/27 04:14:43;;;;;;;56.05;29.90;;;;;;;4.08;88.99;101912.44;2079453;28;46335;-77
2022/01/27 04:15:46;;;;;;;50.58;29.65;;;;;;;4.08;88.72;101907.16;2079725;28;42316;-77
2022/01/27 04:16:47;;;;;;;50.10;29.08;;;;;;;4.08;89.10;101904.50;2079994;28;45436;-77
2022/01/27 04:17:50;;;;;;;52.17;30.60;;;;;;;4.08;89.18;101890.34;2079777;28;44289;-76
2022/01/27 04:18:52;;;;;;;50.10;30.90;;;;;;;4.07;89.45;101901.81;2071184;28;43170;-77
2022/01/27 04:19:53;;;;;;;53.75;31.33;;;;;;;4.04;89.86;101889.41;2071323;28;44122;-77
2022/01/27 04:20:56;;;;;;;54.03;31.42;;;;;;;4.04;89.81;101896.44;2079663;28;44798;-77
2022/01/27 04:21:57;;;;;;;56.30;31.63;;;;;;;4.03;89.77;101890.25;2079110;28;43745;-77
2022/01/27 04:22:59;;;;;;;56.72;31.50;;;;;;;4.04;89.53;101901.75;2074412;28;45322;-77
2022/01/27 04:24:01;;;;;;;54.90;31.33;;;;;;;4.03;89.71;101892.91;2078726;28;39406;-77
2022/01/27 04:25:06;;;;;;;53.97;30.63;;;;;;;4.02;90.00;101891.13;2079595;28;45412;-77
2022/01/27 04:26:09;;;;;;;51.88;29.75;;;;;;;4.05;89.30;101887.63;2079620;28;45837;-77
2022/01/27 04:27:19;;;;;;;54.15;30.58;;;;;;;4.03;89.51;101871.72;2078779;28;43846;-77
2022/01/27 04:28:27;;;;;;;53.03;29.50;;;;;;;4.04;89.05;101886.75;2070328;28;44038;-77
2022/01/27 04:29:34;;;;;;;49.88;28.95;;;;;;;4.05;89.19;101880.56;2070968;28;40766;-76
2022/01/27 04:30:36;;;;;;;53.83;29.77;;;;;;;4.05;89.16;101883.22;2063533;28;43076;-77
2022/01/27 04:31:40;;;;;;;51.65;30.42;;;;;;;4.05;89.20;101888.53;2063352;28;45719;-76
2022/01/27 04:32:51;;;;;;;53.40;31.33;;;;;;;4.06;89.04;101874.44;2070494;28;44315;-76
2022/01/27 04:33:53;;;;;;;52.53;29.88;;;;;;;4.07;89.19;101870.00;2070495;28;45139;-76
2022/01/27 04:35:01;;;;;;;51.13;29.55;;;;;;;4.07;88.95;101873.53;2063172;28;43181;-76
2022/01/27 04:36:10;;;;;;;48.83;29.45;;;;;;;4.04;89.49;101870.84;2073144;28;45563;-76
2022/01/27 04:37:13;;;;;;;49.40;29.30;;;;;;;4.06;89.38;101870.88;2080054;28;44338;-75
2022/01/27 04:38:21;;;;;;;55.08;30.88;;;;;;;4.05;89.48;101862.03;2079564;28;38775;-76
2022/01/27 04:39:33;;;;;;;53.80;30.60;;;;;;;4.04;90.50;101875.25;2070205;28;44510;-76
2022/01/27 04:41:01;;;;;;;48.20;30.00;;;;;;;4.02;90.10;101867.28;2073552;28;43179;-76
2022/01/27 04:42:07;;;;;;;53.97;30.10;;;;;;;4.00;90.87;101863.69;2079165;28;46011;-76
2022/01/27 04:43:31;;;;;;;55.00;30.50;;;;;;;3.98;90.30;101870.72;2079923;28;45206;-76
2022/01/27 04:44:41;;;;;;;52.00;29.48;;;;;;;3.99;89.86;101864.56;2079636;28;43357;-75
2022/01/27 04:45:52;;;;;;;50.65;30.60;;;;;;;3.99;90.53;101870.75;2079463;28;44107;-76
2022/01/27 04:47:02;;;;;;;52.65;29.90;;;;;;;4.01;90.30;101828.41;2079857;28;44212;-76
2022/01/27 04:48:11;;;;;;;52.95;29.10;;;;;;;4.01;89.98;101865.50;2079381;28;43784;-76
2022/01/27 04:49:13;;;;;;;55.85;30.50;;;;;;;4.03;90.05;101865.53;2079348;28;46918;-75
2022/01/27 04:50:15;;;;;;;52.10;30.42;;;;;;;4.03;89.83;101865.53;2079785;28;38591;-76
2022/01/27 04:51:20;;;;;;;57.47;30.10;;;;;;;4.02;89.36;101867.28;2070950;28;42899;-76
2022/01/27 04:52:23;;;;;;;50.53;29.02;;;;;;;4.02;90.06;101872.59;2062408;28;45103;-76
2022/01/27 04:53:33;;;;;;;50.38;29.90;;;;;;;4.02;89.42;101869.94;2071077;28;45248;-76
2022/01/27 04:55:04;;;;;;;51.13;29.23;;;;;;;4.01;89.96;101876.97;2079541;28;43900;-76
2022/01/27 04:56:11;;;;;;;50.42;28.63;;;;;;;4.03;89.66;101871.72;2079816;28;36945;-76
2022/01/27 04:57:12;;;;;;;47.92;28.42;;;;;;;4.04;89.52;101872.59;2070700;28;44048;-76
2022/01/27 04:58:19;;;;;;;53.38;30.08;;;;;;;4.05;89.37;101874.38;2071667;28;45992;-76
2022/01/27 04:59:26;;;;;;;53.95;29.67;;;;;;;4.05;88.96;101874.38;2079757;28;45205;-76
2022/01/27 05:00:28;;;;;;;48.25;29.58;;;;;;;4.05;88.98;101867.31;2078390;28;45129;-76
2022/01/27 05:01:44;;;;;;;46.28;28.80;;;;;;;4.05;89.93;101869.97;2079614;28;44945;-77
2022/01/27 05:02:56;;;;;;;54.80;29.40;;;;;;;4.06;89.78;101850.56;2078660;28;45541;-76
2022/01/27 05:04:07;;;;;;;49.30;28.75;;;;;;;4.06;89.78;101855.88;2080385;28;20042;-76
2022/01/27 05:05:09;;;;;;;53.33;29.67;;;;;;;4.07;89.42;101854.09;2079485;28;42719;-76
2022/01/27 05:06:21;;;;;;;50.47;29.08;;;;;;;4.06;89.72;101853.22;2070570;28;46827;-76
2022/01/27 05:07:23;;;;;;;48.28;27.98;;;;;;;4.07;89.85;101854.09;2072803;28;44228;-76
2022/01/27 05:08:25;;;;;;;51.10;29.35;;;;;;;4.09;90.25;101869.19;2079571;28;45296;-76
2022/01/27 05:09:26;;;;;;;50.83;28.70;;;;;;;4.07;90.41;101859.41;2079122;28;44564;-76
2022/01/27 05:10:32;;;;;;;49.47;28.55;;;;;;;4.08;89.75;101859.44;2071184;28;42179;-76
2022/01/27 05:11:45;;;;;;;52.75;29.20;;;;;;;4.07;90.51;101876.19;2071566;28;44330;-76
2022/01/27 05:12:50;;;;;;;48.00;28.45;;;;;;;4.07;90.28;101872.66;2070893;28;45795;-76
2022/01/27 05:13:57;;;;;;;51.03;29.98;;;;;;;4.06;90.75;101857.63;2073146;28;43904;-76
2022/01/27 05:14:59;;;;;;;53.67;29.92;;;;;;;4.05;90.74;101855.84;2079270;28;43873;-76
2022/01/27 05:16:02;;;;;;;52.25;29.50;;;;;;;4.05;90.80;101861.13;2079790;28;44396;-76
2022/01/27 05:17:04;;;;;;;50.05;29.42;;;;;;;4.04;90.71;101860.25;2080768;28;45761;-75
2022/01/27 05:18:05;;;;;;;48.33;28.95;;;;;;;4.05;91.18;101861.13;2081456;28;23686;-76
2022/01/27 05:19:07;;;;;;;52.85;29.70;;;;;;;4.03;90.92;101853.16;2080392;28;44842;-75
2022/01/27 05:20:10;;;;;;;51.95;30.27;;;;;;;4.03;91.03;101844.31;2080972;28;46456;-75
2022/01/27 05:21:12;;;;;;;49.60;28.08;;;;;;;4.01;91.01;101847.81;2080433;28;44796;-76
2022/01/27 05:22:14;;;;;;;53.42;29.25;;;;;;;4.01;91.31;101849.59;2080949;28;45117;-73
2022/01/27 05:23:16;;;;;;;58.17;29.83;;;;;;;4.02;91.41;101830.19;2079753;28;43390;-76
2022/01/27 05:24:19;;;;;;;56.13;30.08;;;;;;;4.00;91.43;101839.84;2080584;28;45543;-78
2022/01/27 05:25:23;;;;;;;51.13;28.60;;;;;;;4.00;91.81;101842.50;2080524;28;46320;-74
2022/01/27 05:26:32;;;;;;;52.08;29.98;;;;;;;3.99;90.88;101838.97;2081398;28;38670;-74
2022/01/27 05:27:33;;;;;;;50.17;29.63;;;;;;;3.99;91.82;101830.13;2080582;28;43667;-75
2022/01/27 05:28:35;;;;;;;56.97;29.73;;;;;;;3.99;91.46;101835.44;2080998;28;44709;-74
2022/01/27 05:29:37;;;;;;;51.58;29.70;;;;;;;3.99;91.46;101830.13;2080428;28;45721;-74